CYGV

Havre St Pierre Airport

Havre St-Pierre, Quebec, Canada
METAR CYGV 221800Z AUTO 26019KT 9SM FEW250 03/M03 A3007 RMK SLP185
Observed Flight Rules
Apr-22 @ 18:00 UTC (12 minutes ago) Visual Flight Rules
Wind Visibility Clouds
260° at 19 knots 9 miles
  • Few at 25,000' AGL
Temperatures Readings
Current 3°C / 37°F
Dewpoint -3°C / 27°F
Humidity 65%
Altimeter 30.07" Hg
Pressure 1018.5 hPa
Elevation 33
METAR CYGV 221800Z AUTO 26019KT 9SM FEW250 03/M03 A3007 RMK SLP185
Observed Flight Rules
Apr-22 @ 18:00 UTC
(12 minutes ago)
VFR
Wind Visibility
260° at 19 knots 9 miles
Clouds
  • Few at 25,000' AGL
Temperature Dewpoint
3°C / 37°F -3°C / 27°F
Humidity Altimeter Pressure
65% 30.07" Hg 1018.5 hPa